createdAt,value
2023-04-16T00:00:50.824Z,100178.45
2023-04-16T00:03:17.647Z,100175.48
2023-04-16T00:05:44.495Z,100173.53
2023-04-16T00:08:11.374Z,100177.11
2023-04-16T00:10:38.391Z,100175.13
2023-04-16T00:13:05.125Z,100175.35
2023-04-16T00:15:31.881Z,100178.05
2023-04-16T00:17:58.589Z,100173.92
2023-04-16T00:20:25.303Z,100177.79
2023-04-16T00:22:51.927Z,100183.36
2023-04-16T00:25:18.579Z,100185.50
2023-04-16T00:27:45.580Z,100187.44
2023-04-16T00:30:12.491Z,100190.08
2023-04-16T00:32:39.828Z,100187.94
2023-04-16T00:35:07.198Z,100187.74
2023-04-16T00:37:33.778Z,100190.14
2023-04-16T00:40:01.220Z,100189.69
2023-04-16T00:42:27.878Z,100193.10
2023-04-16T00:44:55.311Z,100193.79
2023-04-16T00:47:22.027Z,100196.27
2023-04-16T00:49:49.232Z,100206.54
2023-04-16T00:52:16.042Z,100204.41
2023-04-16T00:54:43.007Z,100206.38
2023-04-16T00:57:10.684Z,100208.29
2023-04-16T00:59:37.621Z,100207.96
2023-04-16T01:02:04.582Z,100209.19
2023-04-16T01:04:31.414Z,100213.04
2023-04-16T01:06:58.110Z,100210.54
2023-04-16T01:09:24.920Z,100210.67
2023-04-16T01:11:51.652Z,100214.32
2023-04-16T01:14:18.241Z,100215.63
2023-04-16T01:16:45.739Z,100216.27
2023-04-16T01:19:12.591Z,100211.54
2023-04-16T01:21:39.196Z,100208.17
2023-04-16T01:24:06.182Z,100207.88
2023-04-16T01:26:33.283Z,100208.88
2023-04-16T01:29:00.467Z,100206.98
2023-04-16T01:31:27.269Z,100205.54
2023-04-16T01:34:02.560Z,100202.29
2023-04-16T01:36:29.241Z,100208.65
2023-04-16T01:38:56.272Z,100215.50
2023-04-16T01:41:23.722Z,100216.73
2023-04-16T01:43:50.442Z,100216.22
2023-04-16T01:46:32.243Z,100212.30
2023-04-16T01:48:59.033Z,100211.41
2023-04-16T01:51:26.028Z,100211.15
2023-04-16T01:53:53.002Z,100216.20
2023-04-16T01:56:19.982Z,100218.60
2023-04-16T01:58:47.489Z,100217.23
2023-04-16T02:01:15.430Z,100222.84
2023-04-16T02:03:42.558Z,100219.92
2023-04-16T02:06:09.486Z,100224.61
2023-04-16T02:08:36.209Z,100223.55
2023-04-16T02:11:03.177Z,100224.42
2023-04-16T02:13:30.015Z,100227.14
2023-04-16T02:15:56.880Z,100231.40
2023-04-16T02:18:44.599Z,100225.91
2023-04-16T02:21:11.733Z,100222.55
2023-04-16T02:23:41.134Z,100218.86
2023-04-16T02:26:07.857Z,100218.83
2023-04-16T02:28:34.522Z,100220.27
2023-04-16T02:31:01.724Z,100220.42
2023-04-16T02:33:31.936Z,100218.43
2023-04-16T02:36:01.444Z,100217.27
2023-04-16T02:38:28.553Z,100220.13
2023-04-16T02:40:55.190Z,100225.27
2023-04-16T02:43:21.935Z,100225.75
2023-04-16T02:45:48.686Z,100223.65
2023-04-16T02:48:15.489Z,100224.95
2023-04-16T02:50:42.065Z,100230.53
2023-04-16T02:53:10.515Z,100230.75
2023-04-16T02:55:37.349Z,100231.81
2023-04-16T02:58:04.007Z,100224.27
2023-04-16T03:00:31.300Z,100232.33
2023-04-16T03:02:58.122Z,100240.25
2023-04-16T03:05:25.248Z,100246.52
2023-04-16T03:07:56.656Z,100247.20
2023-04-16T03:10:24.162Z,100246.30
2023-04-16T03:12:51.110Z,100245.80
2023-04-16T03:15:17.906Z,100250.50
2023-04-16T03:17:44.635Z,100249.70
2023-04-16T03:20:11.673Z,100254.41
2023-04-16T03:22:41.443Z,100254.11
2023-04-16T03:25:08.674Z,100255.48
2023-04-16T03:27:35.788Z,100254.15
2023-04-16T03:30:03.434Z,100253.88
2023-04-16T03:32:31.254Z,100257.20
2023-04-16T03:34:57.966Z,100264.54
2023-04-16T03:37:25.533Z,100267.77
2023-04-16T03:39:52.652Z,100266.54
2023-04-16T03:42:19.221Z,100264.70
2023-04-16T03:44:45.953Z,100269.23
2023-04-16T03:47:14.540Z,100268.63
2023-04-16T03:49:41.211Z,100269.20
2023-04-16T03:52:08.191Z,100276.64
2023-04-16T03:54:34.976Z,100280.45
2023-04-16T03:57:10.705Z,100279.33
2023-04-16T03:59:41.358Z,100284.52
2023-04-16T04:02:08.086Z,100287.79
2023-04-16T04:04:34.869Z,100286.38
2023-04-16T04:07:01.766Z,100287.85
2023-04-16T04:09:28.634Z,100286.77
2023-04-16T04:11:55.686Z,100293.18
2023-04-16T04:14:22.711Z,100290.83
2023-04-16T04:16:49.309Z,100290.88
2023-04-16T04:19:16.019Z,100296.52
2023-04-16T04:21:42.765Z,100296.45
2023-04-16T04:24:09.527Z,100295.41
2023-04-16T04:26:36.409Z,100295.44
2023-04-16T04:29:03.333Z,100298.27
2023-04-16T04:31:30.397Z,100298.51
2023-04-16T04:33:57.108Z,100299.65
2023-04-16T04:36:24.126Z,100306.66
2023-04-16T04:38:51.587Z,100306.00
2023-04-16T04:41:19.703Z,100308.31
2023-04-16T04:43:47.533Z,100313.30
2023-04-16T04:46:14.398Z,100312.88
2023-04-16T04:48:41.160Z,100322.50
2023-04-16T04:51:07.919Z,100328.96
2023-04-16T04:53:34.905Z,100327.94
2023-04-16T04:56:11.104Z,100327.86
2023-04-16T04:58:39.061Z,100328.81
2023-04-16T05:01:06.276Z,100334.13
2023-04-16T05:03:33.103Z,100339.33
2023-04-16T05:05:59.895Z,100343.98
2023-04-16T05:08:27.126Z,100343.81
2023-04-16T05:10:53.691Z,100348.33
2023-04-16T05:13:20.464Z,100349.11
2023-04-16T05:15:47.097Z,100347.93
2023-04-16T05:18:13.702Z,100348.63
2023-04-16T05:20:40.650Z,100353.38
2023-04-16T05:23:07.266Z,100356.55
2023-04-16T05:25:33.886Z,100356.89
2023-04-16T05:28:00.515Z,100361.27
2023-04-16T05:30:27.101Z,100363.62
2023-04-16T05:32:53.865Z,100365.63
2023-04-16T05:35:20.572Z,100367.93
2023-04-16T05:37:47.207Z,100371.08
2023-04-16T05:40:14.720Z,100375.18
2023-04-16T05:42:41.505Z,100377.06
2023-04-16T05:45:08.729Z,100381.63
2023-04-16T05:47:35.656Z,100387.61
2023-04-16T05:50:02.355Z,100394.91
2023-04-16T05:52:29.008Z,100398.44
2023-04-16T05:54:55.751Z,100403.02
2023-04-16T05:57:22.618Z,100402.90
2023-04-16T05:59:49.267Z,100403.85
2023-04-16T06:02:16.042Z,100400.33
2023-04-16T06:04:42.726Z,100405.80
2023-04-16T06:07:09.293Z,100407.23
2023-04-16T06:09:36.180Z,100406.36
2023-04-16T06:12:02.909Z,100405.67
2023-04-16T06:14:29.597Z,100406.27
2023-04-16T06:16:56.428Z,100408.73
2023-04-16T06:19:23.056Z,100409.38
2023-04-16T06:21:50.530Z,100410.41
2023-04-16T06:24:18.607Z,100411.40
2023-04-16T06:26:45.219Z,100414.96
2023-04-16T06:29:12.020Z,100418.86
2023-04-16T06:31:38.962Z,100417.88
2023-04-16T06:34:05.863Z,100420.11
2023-04-16T06:36:32.738Z,100420.59
2023-04-16T06:38:59.327Z,100421.56
2023-04-16T06:41:26.811Z,100418.95
2023-04-16T06:43:53.527Z,100416.81
2023-04-16T06:46:20.117Z,100423.66
2023-04-16T06:48:47.284Z,100423.55
2023-04-16T06:51:13.941Z,100424.23
2023-04-16T06:53:40.700Z,100425.52
2023-04-16T06:56:07.995Z,100421.11
2023-04-16T06:58:34.660Z,100420.49
2023-04-16T07:01:02.826Z,100422.45
2023-04-16T07:03:29.932Z,100421.45
2023-04-16T07:05:57.054Z,100422.39
2023-04-16T07:08:24.673Z,100430.20
2023-04-16T07:10:51.712Z,100429.61
2023-04-16T07:13:18.690Z,100428.14
2023-04-16T07:15:45.420Z,100435.39
2023-04-16T07:18:12.079Z,100430.70
2023-04-16T07:20:38.754Z,100432.68
2023-04-16T07:23:05.476Z,100430.61
2023-04-16T07:25:32.100Z,100432.16
2023-04-16T07:27:58.795Z,100429.46
2023-04-16T07:30:25.452Z,100429.86
2023-04-16T07:32:52.189Z,100430.15
2023-04-16T07:35:18.941Z,100432.35
2023-04-16T07:37:45.767Z,100429.60
2023-04-16T07:40:12.568Z,100429.96
2023-04-16T07:42:39.184Z,100432.60
2023-04-16T07:45:06.418Z,100428.96
2023-04-16T07:47:33.161Z,100432.02
2023-04-16T07:50:00.050Z,100432.39
2023-04-16T07:52:26.956Z,100433.89
2023-04-16T07:54:53.613Z,100437.27
2023-04-16T07:57:21.247Z,100436.88
2023-04-16T07:59:47.831Z,100434.96
2023-04-16T08:02:17.069Z,100438.66
2023-04-16T08:04:44.569Z,100442.65
2023-04-16T08:07:11.565Z,100445.30
2023-04-16T08:09:47.875Z,100445.33
2023-04-16T08:12:14.524Z,100441.96
2023-04-16T08:14:41.670Z,100443.42
2023-04-16T08:17:08.313Z,100445.34
2023-04-16T08:19:34.939Z,100447.70
2023-04-16T08:22:01.700Z,100449.57
2023-04-16T08:24:28.304Z,100451.00
2023-04-16T08:26:57.008Z,100451.59
2023-04-16T08:29:27.061Z,100446.39
2023-04-16T08:31:54.478Z,100445.87
2023-04-16T08:34:21.639Z,100444.64
2023-04-16T08:36:48.225Z,100444.21
2023-04-16T08:39:14.870Z,100448.80
2023-04-16T08:41:44.230Z,100447.75
2023-04-16T08:44:25.567Z,100451.46
2023-04-16T08:46:58.235Z,100456.48
2023-04-16T08:49:28.471Z,100455.09
2023-04-16T08:51:57.107Z,100456.00
2023-04-16T08:54:34.664Z,100457.60
2023-04-16T08:57:06.311Z,100461.12
2023-04-16T08:59:34.191Z,100461.25
2023-04-16T09:02:02.233Z,100460.67
2023-04-16T09:04:29.905Z,100457.11
2023-04-16T09:06:57.518Z,100458.07
2023-04-16T09:09:26.732Z,100458.80
2023-04-16T09:11:53.989Z,100455.08
2023-04-16T09:14:22.051Z,100455.77
2023-04-16T09:16:51.419Z,100455.91
2023-04-16T09:19:18.045Z,100451.45
2023-04-16T09:21:47.340Z,100453.79
2023-04-16T09:24:14.312Z,100450.93
2023-04-16T09:26:44.239Z,100453.46
2023-04-16T09:29:11.170Z,100456.39
2023-04-16T09:31:38.176Z,100460.83
2023-04-16T09:34:09.407Z,100464.10
2023-04-16T09:36:36.751Z,100464.66
2023-04-16T09:39:03.915Z,100461.38
2023-04-16T09:41:33.352Z,100464.60
2023-04-16T09:44:02.230Z,100464.17
2023-04-16T09:46:35.415Z,100465.10
2023-04-16T09:49:09.555Z,100461.09
2023-04-16T09:51:44.351Z,100458.98
2023-04-16T09:54:11.266Z,100461.35
2023-04-16T09:56:43.579Z,100458.52
2023-04-16T09:59:20.215Z,100454.48
2023-04-16T10:01:47.360Z,100456.53
2023-04-16T10:04:14.241Z,100452.73
2023-04-16T10:06:41.208Z,100444.24
2023-04-16T10:09:12.361Z,100441.91
2023-04-16T10:11:39.611Z,100442.02
2023-04-16T10:14:06.406Z,100445.83
2023-04-16T10:16:34.765Z,100443.40
2023-04-16T10:19:02.177Z,100445.92
2023-04-16T10:21:34.338Z,100445.70
2023-04-16T10:24:01.810Z,100450.47
2023-04-16T10:26:30.678Z,100448.91
2023-04-16T10:28:59.034Z,100446.20
2023-04-16T10:31:27.380Z,100447.61
2023-04-16T10:33:54.782Z,100451.73
2023-04-16T10:36:26.487Z,100448.45
2023-04-16T10:38:56.782Z,100451.23
2023-04-16T10:41:23.521Z,100449.66
2023-04-16T10:43:51.076Z,100447.92
2023-04-16T10:46:26.936Z,100440.52
2023-04-16T10:48:56.068Z,100435.88
2023-04-16T10:51:27.990Z,100437.38
2023-04-16T10:53:56.525Z,100436.73
2023-04-16T10:56:31.575Z,100436.73
2023-04-16T10:58:58.280Z,100435.02
2023-04-16T11:01:34.108Z,100436.45
2023-04-16T11:04:19.679Z,100438.98
2023-04-16T11:07:07.935Z,100436.41
2023-04-16T11:09:53.581Z,100435.45
2023-04-16T11:12:38.956Z,100431.18
2023-04-16T11:15:13.823Z,100425.36
2023-04-16T11:17:41.780Z,100421.42
2023-04-16T11:20:19.832Z,100420.18
2023-04-16T11:22:52.242Z,100414.73
2023-04-16T11:25:26.706Z,100418.46
2023-04-16T11:27:53.990Z,100420.70
2023-04-16T11:30:32.102Z,100420.34
2023-04-16T11:32:59.091Z,100420.83
2023-04-16T11:35:25.996Z,100417.17
2023-04-16T11:37:57.144Z,100415.68
2023-04-16T11:40:24.527Z,100414.13
2023-04-16T11:42:51.249Z,100412.56
2023-04-16T11:45:19.462Z,100410.67
2023-04-16T11:47:52.245Z,100405.27
2023-04-16T11:50:27.734Z,100405.27
2023-04-16T11:52:56.334Z,100408.82
2023-04-16T11:55:23.963Z,100402.20
2023-04-16T11:57:52.321Z,100404.16
2023-04-16T12:00:23.718Z,100400.29
2023-04-16T12:02:57.724Z,100394.59
2023-04-16T12:05:35.169Z,100401.60
2023-04-16T12:08:04.099Z,100393.23
2023-04-16T12:10:35.047Z,100396.32
2023-04-16T12:13:11.873Z,100392.77
2023-04-16T12:15:46.576Z,100392.55
2023-04-16T12:18:13.750Z,100388.09
2023-04-16T12:20:43.645Z,100384.91
2023-04-16T12:23:22.161Z,100384.56
2023-04-16T12:25:50.030Z,100384.52
2023-04-16T12:28:27.838Z,100379.71
2023-04-16T12:30:54.472Z,100380.02
2023-04-16T12:33:21.289Z,100375.11
2023-04-16T12:35:48.041Z,100373.70
2023-04-16T12:38:15.493Z,100372.91
2023-04-16T12:40:42.422Z,100368.38
2023-04-16T12:43:11.880Z,100370.17
2023-04-16T12:45:39.801Z,100370.23
2023-04-16T12:48:07.013Z,100369.27
2023-04-16T12:50:33.635Z,100370.23
2023-04-16T12:53:00.505Z,100370.05
2023-04-16T12:55:27.129Z,100367.44
2023-04-16T12:57:54.804Z,100366.00
2023-04-16T13:00:21.624Z,100366.63
2023-04-16T13:02:48.372Z,100367.16
2023-04-16T13:05:16.704Z,100365.50
2023-04-16T13:07:43.458Z,100361.50
2023-04-16T13:10:10.469Z,100357.40
2023-04-16T13:12:37.108Z,100357.98
2023-04-16T13:15:04.399Z,100361.08
2023-04-16T13:17:31.308Z,100359.66
2023-04-16T13:19:57.963Z,100350.76
2023-04-16T13:22:24.776Z,100353.85
2023-04-16T13:24:51.411Z,100354.77
2023-04-16T13:27:18.125Z,100353.48
2023-04-16T13:29:44.932Z,100346.73
2023-04-16T13:32:13.804Z,100347.33
2023-04-16T13:34:40.816Z,100349.10
2023-04-16T13:37:07.390Z,100350.71
2023-04-16T13:39:34.035Z,100349.19
2023-04-16T13:42:00.779Z,100351.98
2023-04-16T13:44:27.360Z,100352.92
2023-04-16T13:46:54.128Z,100350.98
2023-04-16T13:49:20.814Z,100349.90
2023-04-16T13:51:47.433Z,100350.33
2023-04-16T13:54:14.025Z,100353.02
2023-04-16T13:56:40.958Z,100354.90
2023-04-16T13:59:08.303Z,100361.85
2023-04-16T14:01:35.136Z,100372.09
2023-04-16T14:04:06.802Z,100370.59
2023-04-16T14:06:34.759Z,100373.96
2023-04-16T14:09:02.023Z,100370.98
2023-04-16T14:11:28.887Z,100368.87
2023-04-16T14:13:55.589Z,100372.73
2023-04-16T14:16:22.502Z,100369.73
2023-04-16T14:18:49.203Z,100370.48
2023-04-16T14:21:16.416Z,100370.98
2023-04-16T14:23:43.080Z,100369.83
2023-04-16T14:26:09.798Z,100371.45
2023-04-16T14:28:36.495Z,100371.64
2023-04-16T14:31:03.149Z,100373.31
2023-04-16T14:33:29.856Z,100377.45
2023-04-16T14:35:56.492Z,100375.87
2023-04-16T14:38:23.152Z,100373.13
2023-04-16T14:40:49.789Z,100372.92
2023-04-16T14:43:16.409Z,100372.11
2023-04-16T14:45:43.164Z,100369.42
2023-04-16T14:48:09.872Z,100367.73
2023-04-16T14:50:43.589Z,100368.11
2023-04-16T14:53:11.850Z,100371.10
2023-04-16T14:55:38.599Z,100375.86
2023-04-16T14:58:05.737Z,100382.09
2023-04-16T15:00:34.760Z,100377.27
2023-04-16T15:03:01.656Z,100376.52
2023-04-16T15:05:29.739Z,100380.77
2023-04-16T15:07:56.808Z,100383.73
2023-04-16T15:10:23.418Z,100386.05
2023-04-16T15:12:49.999Z,100387.59
2023-04-16T15:15:16.711Z,100384.90
2023-04-16T15:17:43.834Z,100386.46
2023-04-16T15:20:11.038Z,100390.83
2023-04-16T15:22:38.392Z,100392.83
2023-04-16T15:25:06.472Z,100396.39
2023-04-16T15:27:33.100Z,100394.73
2023-04-16T15:29:59.891Z,100398.67
2023-04-16T15:32:26.701Z,100400.52
2023-04-16T15:34:53.280Z,100399.05
2023-04-16T15:37:19.973Z,100397.04
2023-04-16T15:39:46.595Z,100396.83
2023-04-16T15:42:13.374Z,100399.27
2023-04-16T15:44:40.700Z,100399.82
2023-04-16T15:47:08.772Z,100400.02
2023-04-16T15:49:36.444Z,100401.24
2023-04-16T15:52:03.492Z,100402.71
2023-04-16T15:54:31.924Z,100400.75
2023-04-16T15:56:59.099Z,100409.20
2023-04-16T15:59:26.770Z,100407.59
2023-04-16T16:01:53.734Z,100415.45
2023-04-16T16:04:23.129Z,100414.64
2023-04-16T16:06:50.902Z,100420.95
2023-04-16T16:09:17.672Z,100425.58
2023-04-16T16:11:44.468Z,100430.00
2023-04-16T16:14:11.250Z,100428.63
2023-04-16T16:16:37.956Z,100428.73
2023-04-16T16:19:04.791Z,100430.62
2023-04-16T16:21:32.602Z,100431.77
2023-04-16T16:23:59.430Z,100431.23
2023-04-16T16:26:26.163Z,100432.39
2023-04-16T16:28:52.832Z,100433.94
2023-04-16T16:31:19.610Z,100432.77
2023-04-16T16:33:47.354Z,100438.14
2023-04-16T16:36:14.412Z,100442.12
2023-04-16T16:38:42.657Z,100445.98
2023-04-16T16:41:09.490Z,100443.83
2023-04-16T16:43:38.968Z,100441.23
2023-04-16T16:46:07.407Z,100444.34
2023-04-16T16:48:34.234Z,100446.86
2023-04-16T16:51:01.188Z,100447.47
2023-04-16T16:53:27.827Z,100453.13
2023-04-16T16:55:54.440Z,100465.74
2023-04-16T16:58:21.129Z,100472.13
2023-04-16T17:00:48.013Z,100477.09
2023-04-16T17:03:14.850Z,100483.59
2023-04-16T17:05:41.667Z,100487.83
2023-04-16T17:08:08.380Z,100494.80
2023-04-16T17:10:35.884Z,100494.37
2023-04-16T17:13:02.595Z,100498.50
2023-04-16T17:15:29.266Z,100501.85
2023-04-16T17:17:55.901Z,100506.52
2023-04-16T17:20:22.621Z,100507.60
2023-04-16T17:22:49.320Z,100509.70
2023-04-16T17:25:16.097Z,100511.84
2023-04-16T17:27:42.736Z,100515.78
2023-04-16T17:30:09.858Z,100518.02
2023-04-16T17:32:36.563Z,100521.39
2023-04-16T17:35:04.414Z,100522.47
2023-04-16T17:37:31.218Z,100528.02
2023-04-16T17:39:57.926Z,100529.84
2023-04-16T17:42:24.871Z,100535.40
2023-04-16T17:44:51.971Z,100538.88
2023-04-16T17:47:18.645Z,100542.38
2023-04-16T17:49:45.499Z,100545.57
2023-04-16T17:52:12.132Z,100552.13
2023-04-16T17:54:38.848Z,100555.35
2023-04-16T17:57:05.474Z,100554.89
2023-04-16T17:59:32.060Z,100552.75
2023-04-16T18:01:58.712Z,100551.52
2023-04-16T18:04:25.524Z,100554.90
2023-04-16T18:06:52.545Z,100556.80
2023-04-16T18:09:20.281Z,100557.41
2023-04-16T18:11:47.085Z,100560.03
2023-04-16T18:14:16.908Z,100562.19
2023-04-16T18:16:43.774Z,100567.18
2023-04-16T18:19:10.418Z,100564.86
2023-04-16T18:21:37.224Z,100566.35
2023-04-16T18:24:04.038Z,100572.49
2023-04-16T18:26:31.183Z,100573.65
2023-04-16T18:28:59.384Z,100579.25
2023-04-16T18:31:26.799Z,100581.96
2023-04-16T18:33:57.829Z,100584.93
2023-04-16T18:36:26.869Z,100580.77
2023-04-16T18:41:24.130Z,100584.19
2023-04-16T18:43:51.152Z,100588.41
2023-04-16T18:46:17.886Z,100590.98
2023-04-16T18:48:45.350Z,100592.16
2023-04-16T18:51:14.239Z,100595.76
2023-04-16T18:53:44.409Z,100596.23
2023-04-16T18:56:11.707Z,100598.23
2023-04-16T18:58:38.414Z,100601.59
2023-04-16T19:01:07.933Z,100603.42
2023-04-16T19:03:34.783Z,100603.40
2023-04-16T19:06:02.045Z,100603.71
2023-04-16T19:08:29.189Z,100609.45
2023-04-16T19:10:55.909Z,100611.98
2023-04-16T19:13:22.618Z,100612.98
2023-04-16T19:15:49.208Z,100616.45
2023-04-16T19:18:15.910Z,100621.88
2023-04-16T19:20:42.498Z,100622.60
2023-04-16T19:23:09.265Z,100622.45
2023-04-16T19:25:36.654Z,100625.03
2023-04-16T19:28:03.884Z,100627.23
2023-04-16T19:30:30.994Z,100628.42
2023-04-16T19:32:57.800Z,100632.81
2023-04-16T19:35:24.534Z,100636.30
2023-04-16T19:37:51.441Z,100638.84
2023-04-16T19:40:18.092Z,100640.04
2023-04-16T19:42:45.426Z,100637.34
2023-04-16T19:45:12.190Z,100638.48
2023-04-16T19:47:38.923Z,100640.26
2023-04-16T19:50:06.551Z,100641.89
2023-04-16T19:52:38.842Z,100640.63
2023-04-16T19:55:06.753Z,100641.70
2023-04-16T19:57:33.490Z,100645.15
2023-04-16T20:02:27.012Z,100640.60
2023-04-16T20:04:53.903Z,100634.99
2023-04-16T20:07:20.625Z,100637.36
2023-04-16T20:09:47.356Z,100640.45
2023-04-16T20:12:14.490Z,100637.11
2023-04-16T20:14:42.017Z,100638.48
2023-04-16T20:17:10.230Z,100638.73
2023-04-16T20:19:40.618Z,100639.71
2023-04-16T20:22:07.399Z,100641.63
2023-04-16T20:24:34.369Z,100642.70
2023-04-16T20:27:01.905Z,100642.17
2023-04-16T20:29:28.606Z,100639.36
2023-04-16T20:31:55.299Z,100636.83
2023-04-16T20:34:21.920Z,100638.63
2023-04-16T20:36:48.548Z,100637.36
2023-04-16T20:39:20.493Z,100642.88
2023-04-16T20:41:56.469Z,100645.55
2023-04-16T20:44:40.763Z,100648.13
2023-04-16T20:47:08.696Z,100649.54
2023-04-16T20:49:35.541Z,100648.86
2023-04-16T20:52:02.531Z,100645.70
2023-04-16T20:54:32.226Z,100648.08
2023-04-16T20:56:59.349Z,100644.63
2023-04-16T20:59:26.141Z,100639.86
2023-04-16T21:01:52.884Z,100637.97
2023-04-16T21:04:19.723Z,100642.23
2023-04-16T21:06:46.991Z,100639.94
2023-04-16T21:09:13.920Z,100643.20
2023-04-16T21:11:40.797Z,100646.17
2023-04-16T21:14:07.372Z,100646.08
2023-04-16T21:16:34.130Z,100643.80
2023-04-16T21:19:00.936Z,100642.55
2023-04-16T21:21:27.601Z,100646.27
2023-04-16T21:23:54.252Z,100641.24
2023-04-16T21:26:20.948Z,100639.77
2023-04-16T21:28:47.519Z,100638.08
2023-04-16T21:31:14.205Z,100635.99
2023-04-16T21:33:40.784Z,100635.42
2023-04-16T21:36:07.640Z,100638.95
2023-04-16T21:38:34.387Z,100637.20
2023-04-16T21:41:01.681Z,100638.77
2023-04-16T21:43:30.664Z,100637.91
2023-04-16T21:45:58.028Z,100637.35
2023-04-16T21:48:25.340Z,100633.59
2023-04-16T21:50:59.861Z,100636.81
2023-04-16T21:53:28.135Z,100634.82
2023-04-16T21:55:54.820Z,100634.55
2023-04-16T21:58:21.473Z,100634.89
2023-04-16T22:00:48.343Z,100634.85
2023-04-16T22:03:17.408Z,100632.11
2023-04-16T22:05:45.099Z,100628.12
2023-04-16T22:10:43.892Z,100629.92
2023-04-16T22:13:12.764Z,100625.17
2023-04-16T22:15:39.954Z,100622.05
2023-04-16T22:18:06.707Z,100619.85
2023-04-16T22:20:39.135Z,100617.38
2023-04-16T22:23:06.919Z,100619.63
2023-04-16T22:25:33.761Z,100617.58
2023-04-16T22:28:03.742Z,100614.69
2023-04-16T22:30:30.434Z,100613.45
2023-04-16T22:32:57.819Z,100613.98
2023-04-16T22:35:24.535Z,100612.27
2023-04-16T22:37:51.173Z,100617.19
2023-04-16T22:40:18.287Z,100615.23
2023-04-16T22:42:45.025Z,100622.13
2023-04-16T22:45:12.729Z,100620.61
2023-04-16T22:47:39.729Z,100620.66
2023-04-16T22:50:07.317Z,100619.16
2023-04-16T22:52:33.969Z,100615.46
2023-04-16T22:55:00.601Z,100614.70
2023-04-16T22:57:27.229Z,100614.08
2023-04-16T22:59:54.126Z,100609.34
2023-04-16T23:02:21.501Z,100605.45
2023-04-16T23:04:48.332Z,100603.59
2023-04-16T23:07:16.349Z,100604.05
2023-04-16T23:09:43.068Z,100604.33
2023-04-16T23:12:09.661Z,100601.34
2023-04-16T23:14:37.039Z,100605.99
2023-04-16T23:17:03.749Z,100602.19
2023-04-16T23:19:31.305Z,100602.95
2023-04-16T23:21:58.003Z,100600.67
2023-04-16T23:24:24.741Z,100604.34
2023-04-16T23:26:52.505Z,100597.52
2023-04-16T23:29:20.358Z,100598.24
2023-04-16T23:31:47.303Z,100596.31
2023-04-16T23:34:14.117Z,100593.98
2023-04-16T23:36:40.894Z,100595.14
2023-04-16T23:39:07.550Z,100595.77
2023-04-16T23:41:34.735Z,100596.48
2023-04-16T23:44:01.480Z,100594.04
2023-04-16T23:46:28.337Z,100589.74
2023-04-16T23:48:55.509Z,100591.00
2023-04-16T23:51:22.291Z,100592.10
2023-04-16T23:53:49.093Z,100586.65
2023-04-16T23:56:15.953Z,100584.78
2023-04-16T23:58:42.710Z,100585.77
